Houston, Texas
Current Conditions -  °F | °C
As of 12:35 PM on Saturday 25 Oct 2014 (Local Time) from KMCJ Reporting Station
Clear Clear  
Wind Chill: 81°   Ceiling: Unl
Heat Index: 81°   Visibility: 10mi
Dew Point: 54°   Wind: 0mph
Humidity: 39%   Direction: NA
Pressure: 30.13"   Gusts: NA
Location:  29.76°N, 95.37°W
Report Text: KMCJ 251735Z AUTO 00000KT 10SM CLR 27/12 A3013 RMK AO1
Loading
Personal Weather Stations






























Interactive Weather Map New forecast layout! Learn more

10-Day Weather Forecast

Advertisements
Track Severe Weather on mobile